Terminal Aerodrome Forecast
Issued by NWS Denver/Boulder, CO

Home | Current Version | Previous Version | Text Only | Print | Product List | Glossary On
Versions: 1 2 3 4 5 6 7 8 9 10 11 12 13 14 15 16 17 18 19 20 21 22 23 24 25 26 27 28 29 30 31 32 33 34 35 36 37 38 39 40 41 42 43 44 45 46 47 48 49 50
000
FTUS45 KBOU 261458 AAB
TAFDEN
TAF AMD
KDEN 261458Z 2615/2718 14012KT P6SM FEW040 SCT120 BKN220
     FM261600 14010KT P6SM FEW050 BKN140
     FM262100 13012KT P6SM SCT060 BKN100
      TEMPO 2621/2624 VRB20G35KT 5SM TSRA BKN050CB
     FM270000 04007KT P6SM VCTS SCT060CB BKN100
      TEMPO 2700/2704 VRB20G40KT 3SM TSRA BKN050CB
     FM270600 27007KT P6SM SCT080 BKN150
     FM271400 35007KT P6SM SCT080 BKN150=

USA.gov is the U.S. government's official web portal to all federal, state and local government web resources and services.